createdAt,value
2023-02-21T00:00:06.470Z,2.91
2023-02-21T00:01:57.076Z,2.60
2023-02-21T00:03:47.121Z,2.74
2023-02-21T00:05:37.626Z,2.64
2023-02-21T00:07:29.073Z,2.73
2023-02-21T00:09:19.345Z,2.83
2023-02-21T00:11:09.734Z,2.79
2023-02-21T00:12:59.716Z,2.68
2023-02-21T00:14:50.062Z,2.73
2023-02-21T00:16:40.410Z,2.64
2023-02-21T00:18:30.587Z,2.62
2023-02-21T00:20:21.103Z,2.69
2023-02-21T00:22:11.616Z,2.69
2023-02-21T00:24:03.434Z,2.78
2023-02-21T00:25:53.954Z,2.76
2023-02-21T00:27:44.460Z,2.84
2023-02-21T00:29:35.574Z,2.69
2023-02-21T00:31:26.015Z,2.48
2023-02-21T00:33:16.183Z,2.41
2023-02-21T00:35:06.466Z,2.61
2023-02-21T00:36:56.697Z,2.75
2023-02-21T00:38:47.081Z,2.72
2023-02-21T00:40:38.703Z,2.61
2023-02-21T00:42:29.117Z,2.63
2023-02-21T00:44:19.485Z,2.58
2023-02-21T00:46:10.002Z,2.67
2023-02-21T00:48:00.512Z,2.72
2023-02-21T00:49:51.035Z,2.68
2023-02-21T00:51:41.289Z,2.61
2023-02-21T00:53:31.613Z,2.67
2023-02-21T00:55:22.055Z,2.67
2023-02-21T00:57:13.640Z,2.47
2023-02-21T00:59:04.093Z,2.11
2023-02-21T01:00:54.252Z,2.33
2023-02-21T01:02:44.686Z,2.38
2023-02-21T01:04:35.020Z,2.34
2023-02-21T01:06:28.213Z,2.32
2023-02-21T01:08:18.597Z,2.50
2023-02-21T01:10:08.996Z,2.59
2023-02-21T01:11:59.341Z,2.70
2023-02-21T01:13:51.055Z,2.66
2023-02-21T01:15:41.238Z,2.56
2023-02-21T01:17:31.369Z,2.56
2023-02-21T01:19:21.810Z,2.52
2023-02-21T01:21:12.297Z,2.46
2023-02-21T01:23:02.502Z,2.43
2023-02-21T01:24:52.787Z,2.37
2023-02-21T01:26:43.106Z,2.38
2023-02-21T01:28:33.409Z,2.28
2023-02-21T01:30:25.958Z,2.34
2023-02-21T01:32:16.314Z,2.35
2023-02-21T01:34:06.702Z,2.24
2023-02-21T01:35:57.206Z,2.11
2023-02-21T01:37:47.609Z,2.05
2023-02-21T01:39:37.966Z,1.97
2023-02-21T01:41:28.351Z,2.05
2023-02-21T01:43:18.629Z,2.10
2023-02-21T01:45:42.339Z,2.00
2023-02-21T01:47:33.860Z,1.88
2023-02-21T01:49:25.950Z,1.91
2023-02-21T01:51:16.830Z,1.94
2023-02-21T01:53:07.287Z,2.00
2023-02-21T01:55:01.069Z,1.74
2023-02-21T01:56:51.268Z,1.49
2023-02-21T01:58:41.770Z,1.72
2023-02-21T02:00:33.121Z,1.86
2023-02-21T02:02:25.480Z,1.36
2023-02-21T02:04:17.142Z,1.66
2023-02-21T02:06:08.470Z,1.80
2023-02-21T02:07:58.917Z,1.69
2023-02-21T02:09:49.436Z,1.76
2023-02-21T02:11:51.037Z,2.00
2023-02-21T02:13:30.282Z,2.03
2023-02-21T02:15:24.768Z,2.02
2023-02-21T02:16:58.735Z,2.04
2023-02-21T02:18:51.131Z,1.93
2023-02-21T02:20:57.540Z,1.84
2023-02-21T02:22:39.371Z,1.72
2023-02-21T02:24:32.904Z,1.76
2023-02-21T02:26:26.684Z,1.64
2023-02-21T02:28:17.574Z,1.50
2023-02-21T02:30:30.842Z,1.54
2023-02-21T02:32:13.773Z,1.67
2023-02-21T02:34:18.150Z,1.36
2023-02-21T02:35:51.553Z,1.38
2023-02-21T02:37:24.632Z,1.53
2023-02-21T02:39:00.531Z,1.53
2023-02-21T02:40:33.424Z,1.65
2023-02-21T02:42:07.825Z,1.70
2023-02-21T02:43:41.810Z,1.54
2023-02-21T02:45:15.236Z,1.55
2023-02-21T02:46:47.176Z,1.52
2023-02-21T02:48:21.388Z,1.41
2023-02-21T02:49:52.989Z,1.45
2023-02-21T02:51:25.928Z,1.49
2023-02-21T02:53:01.305Z,1.44
2023-02-21T02:54:32.869Z,1.21
2023-02-21T02:56:05.787Z,1.40
2023-02-21T02:57:41.187Z,1.57
2023-02-21T02:59:14.190Z,1.60
2023-02-21T03:00:47.678Z,1.53
2023-02-21T03:02:27.340Z,1.40
2023-02-21T03:04:06.945Z,1.40
2023-02-21T03:05:51.277Z,1.40
2023-02-21T03:07:26.973Z,1.40
2023-02-21T03:09:03.170Z,1.47
2023-02-21T03:10:39.895Z,1.43
2023-02-21T03:12:15.437Z,1.50
2023-02-21T03:13:48.918Z,1.57
2023-02-21T03:15:21.891Z,1.55
2023-02-21T03:16:55.177Z,1.61
2023-02-21T03:18:28.972Z,1.49
2023-02-21T03:20:00.687Z,1.46
2023-02-21T03:21:36.896Z,1.31
2023-02-21T03:23:10.158Z,1.24
2023-02-21T03:24:42.643Z,1.24
2023-02-21T03:26:14.302Z,1.31
2023-02-21T03:27:45.976Z,1.35
2023-02-21T03:29:17.638Z,1.41
2023-02-21T03:30:49.322Z,1.37
2023-02-21T03:32:22.319Z,1.40
2023-02-21T03:33:54.237Z,1.33
2023-02-21T03:35:29.507Z,1.29
2023-02-21T03:37:01.359Z,1.19
2023-02-21T03:38:34.491Z,1.24
2023-02-21T03:40:07.460Z,1.16
2023-02-21T03:41:39.106Z,1.07
2023-02-21T03:43:10.769Z,1.15
2023-02-21T03:44:42.458Z,1.21
2023-02-21T03:46:14.206Z,1.18
2023-02-21T03:47:46.058Z,1.19
2023-02-21T03:49:17.715Z,1.14
2023-02-21T03:50:49.366Z,1.17
2023-02-21T03:52:21.044Z,1.30
2023-02-21T03:53:54.120Z,1.35
2023-02-21T03:55:25.885Z,1.27
2023-02-21T03:56:57.587Z,1.18
2023-02-21T03:58:29.236Z,1.25
2023-02-21T04:00:01.007Z,1.25
2023-02-21T04:01:32.692Z,1.19
2023-02-21T04:03:04.562Z,1.19
2023-02-21T04:04:36.260Z,1.17
2023-02-21T04:06:08.042Z,1.19
2023-02-21T04:07:39.702Z,1.16
2023-02-21T04:09:12.703Z,1.04
2023-02-21T04:10:51.983Z,0.92
2023-02-21T04:12:24.464Z,0.96
2023-02-21T04:13:56.252Z,0.99
2023-02-21T04:15:27.889Z,0.98
2023-02-21T04:16:59.619Z,0.86
2023-02-21T04:18:31.274Z,0.78
2023-02-21T04:20:03.035Z,0.71
2023-02-21T04:21:34.654Z,0.84
2023-02-21T04:23:06.324Z,0.92
2023-02-21T04:24:39.318Z,0.89
2023-02-21T04:26:11.037Z,0.89
2023-02-21T04:27:42.770Z,0.96
2023-02-21T04:29:14.416Z,0.89
2023-02-21T04:30:46.229Z,0.88
2023-02-21T04:32:20.151Z,0.96
2023-02-21T04:34:02.487Z,0.90
2023-02-21T04:35:41.309Z,0.90
2023-02-21T04:37:13.048Z,0.78
2023-02-21T04:38:44.710Z,0.62
2023-02-21T04:40:18.288Z,0.57
2023-02-21T04:41:49.978Z,0.63
2023-02-21T04:43:21.800Z,0.78
2023-02-21T04:45:00.112Z,0.80
2023-02-21T04:46:32.244Z,0.81
2023-02-21T04:48:04.247Z,0.68
2023-02-21T04:49:35.926Z,0.64
2023-02-21T04:51:15.093Z,0.74
2023-02-21T04:52:47.370Z,0.67
2023-02-21T04:54:19.035Z,0.61
2023-02-21T04:55:52.137Z,0.69
2023-02-21T04:57:23.836Z,0.71
2023-02-21T04:58:55.635Z,0.72
2023-02-21T05:00:27.271Z,0.79
2023-02-21T05:02:02.459Z,0.78
2023-02-21T05:03:34.515Z,0.71
2023-02-21T05:05:06.608Z,0.74
2023-02-21T05:06:38.410Z,0.58
2023-02-21T05:08:10.072Z,0.65
2023-02-21T05:09:41.705Z,0.67
2023-02-21T05:11:14.990Z,0.72
2023-02-21T05:12:46.899Z,0.79
2023-02-21T05:14:18.711Z,0.81
2023-02-21T05:15:50.415Z,0.73
2023-02-21T05:17:22.100Z,0.74
2023-02-21T05:18:53.805Z,0.58
2023-02-21T05:20:25.467Z,0.59
2023-02-21T05:21:58.210Z,0.68
2023-02-21T05:23:36.121Z,0.65
2023-02-21T05:25:08.293Z,0.72
2023-02-21T05:26:41.239Z,0.77
2023-02-21T05:28:12.913Z,0.79
2023-02-21T05:29:46.601Z,0.81
2023-02-21T05:31:18.587Z,0.86
2023-02-21T05:32:50.476Z,0.86
2023-02-21T05:34:22.121Z,0.82
2023-02-21T05:35:53.865Z,0.81
2023-02-21T05:37:25.544Z,0.86
2023-02-21T05:38:57.383Z,0.85
2023-02-21T05:40:29.113Z,0.85
2023-02-21T05:42:02.195Z,0.73
2023-02-21T05:43:33.906Z,0.68
2023-02-21T05:45:06.891Z,0.63
2023-02-21T05:46:38.639Z,0.61
2023-02-21T05:48:10.352Z,0.72
2023-02-21T05:49:42.082Z,0.67
2023-02-21T05:51:14.076Z,0.57
2023-02-21T05:52:45.893Z,0.55
2023-02-21T05:54:18.615Z,0.54
2023-02-21T05:55:50.422Z,0.67
2023-02-21T05:57:23.370Z,0.80
2023-02-21T05:58:55.077Z,0.88
2023-02-21T06:00:28.160Z,0.85
2023-02-21T06:01:59.868Z,0.82
2023-02-21T06:03:31.565Z,0.86
2023-02-21T06:05:03.326Z,0.85
2023-02-21T06:06:35.026Z,0.84
2023-02-21T06:08:09.152Z,0.76
2023-02-21T06:09:42.169Z,0.82
2023-02-21T06:11:14.147Z,0.78
2023-02-21T06:12:47.421Z,0.81
2023-02-21T06:14:19.804Z,0.78
2023-02-21T06:15:51.524Z,0.78
2023-02-21T06:17:23.268Z,0.73
2023-02-21T06:18:55.827Z,0.65
2023-02-21T06:20:27.542Z,0.56
2023-02-21T06:21:59.154Z,0.47
2023-02-21T06:23:30.812Z,0.38
2023-02-21T06:25:02.552Z,0.40
2023-02-21T06:26:34.294Z,0.37
2023-02-21T06:28:07.992Z,0.36
2023-02-21T06:29:39.706Z,0.45
2023-02-21T06:31:11.472Z,0.41
2023-02-21T06:32:43.397Z,0.33
2023-02-21T06:34:15.020Z,0.32
2023-02-21T06:35:46.697Z,0.39
2023-02-21T06:37:18.509Z,0.40
2023-02-21T06:38:53.294Z,0.42
2023-02-21T06:40:24.971Z,0.38
2023-02-21T06:41:56.693Z,0.39
2023-02-21T06:43:29.707Z,0.19
2023-02-21T06:45:01.351Z,0.44
2023-02-21T06:46:33.081Z,0.58
2023-02-21T06:48:05.021Z,0.63
2023-02-21T06:49:36.688Z,0.63
2023-02-21T06:51:11.314Z,0.54
2023-02-21T06:52:43.089Z,0.49
2023-02-21T06:54:17.163Z,0.47
2023-02-21T06:55:48.820Z,0.53
2023-02-21T06:57:20.582Z,0.48
2023-02-21T06:58:53.649Z,0.39
2023-02-21T07:00:27.014Z,0.44
2023-02-21T07:01:58.846Z,0.56
2023-02-21T07:03:30.574Z,0.62
2023-02-21T07:05:02.254Z,0.66
2023-02-21T07:06:33.933Z,0.52
2023-02-21T07:08:05.810Z,0.51
2023-02-21T07:09:37.433Z,0.58
2023-02-21T07:11:09.114Z,0.64
2023-02-21T07:12:40.742Z,0.65
2023-02-21T07:14:13.794Z,0.58
2023-02-21T07:15:45.683Z,0.58
2023-02-21T07:17:17.496Z,0.61
2023-02-21T07:18:49.155Z,0.69
2023-02-21T07:20:20.809Z,0.68
2023-02-21T07:21:52.482Z,0.47
2023-02-21T07:23:24.096Z,0.41
2023-02-21T07:24:55.997Z,0.45
2023-02-21T07:26:27.706Z,0.60
2023-02-21T07:27:59.313Z,0.76
2023-02-21T07:29:32.277Z,0.83
2023-02-21T07:31:04.214Z,0.92
2023-02-21T07:32:35.798Z,0.96
2023-02-21T07:34:07.533Z,0.99
2023-02-21T07:35:39.135Z,1.00
2023-02-21T07:37:10.903Z,1.04
2023-02-21T07:38:42.531Z,1.06
2023-02-21T07:40:14.191Z,1.07
2023-02-21T07:41:45.928Z,1.17
2023-02-21T07:43:17.603Z,1.16
2023-02-21T07:44:55.070Z,1.17
2023-02-21T07:46:28.661Z,1.16
2023-02-21T07:48:00.314Z,1.08
2023-02-21T07:49:31.982Z,1.14
2023-02-21T07:51:03.883Z,1.15
2023-02-21T07:52:35.593Z,1.16
2023-02-21T07:54:07.193Z,1.24
2023-02-21T07:55:38.862Z,1.33
2023-02-21T07:57:10.986Z,1.32
2023-02-21T07:58:42.561Z,1.44
2023-02-21T08:00:19.048Z,1.45
2023-02-21T08:01:50.765Z,1.48
2023-02-21T08:03:23.035Z,1.57
2023-02-21T08:04:54.740Z,1.52
2023-02-21T08:06:26.404Z,1.61
2023-02-21T08:08:00.757Z,1.58
2023-02-21T08:09:33.282Z,1.65
2023-02-21T08:11:05.403Z,1.72
2023-02-21T08:12:36.991Z,1.85
2023-02-21T08:14:08.595Z,1.98
2023-02-21T08:15:41.513Z,2.16
2023-02-21T08:17:14.122Z,2.52
2023-02-21T08:18:47.200Z,2.60
2023-02-21T08:20:18.973Z,2.53
2023-02-21T08:21:50.663Z,2.55
2023-02-21T08:23:22.375Z,2.71
2023-02-21T08:24:54.004Z,2.68
2023-02-21T08:26:25.743Z,2.73
2023-02-21T08:27:58.696Z,2.84
2023-02-21T08:29:30.309Z,2.88
2023-02-21T08:31:03.347Z,2.85
2023-02-21T08:32:35.367Z,2.91
2023-02-21T08:34:07.007Z,3.02
2023-02-21T08:35:38.599Z,2.88
2023-02-21T08:37:17.336Z,2.96
2023-02-21T08:38:48.938Z,2.84
2023-02-21T08:40:20.695Z,2.90
2023-02-21T08:41:52.495Z,3.03
2023-02-21T08:43:24.118Z,2.81
2023-02-21T08:44:56.010Z,2.73
2023-02-21T08:46:28.992Z,2.81
2023-02-21T08:48:00.625Z,2.80
2023-02-21T08:49:32.284Z,2.78
2023-02-21T08:51:04.231Z,2.73
2023-02-21T08:52:35.775Z,2.73
2023-02-21T08:54:07.488Z,2.67
2023-02-21T08:55:39.103Z,2.56
2023-02-21T08:57:10.734Z,2.67
2023-02-21T08:58:42.364Z,2.64
2023-02-21T09:00:15.034Z,2.62
2023-02-21T09:01:47.977Z,2.70
2023-02-21T09:03:19.590Z,2.83
2023-02-21T09:04:51.336Z,2.98
2023-02-21T09:06:22.992Z,2.95
2023-02-21T09:08:01.478Z,3.03
2023-02-21T09:09:33.348Z,3.22
2023-02-21T09:11:05.347Z,3.11
2023-02-21T09:12:37.203Z,3.13
2023-02-21T09:14:08.855Z,3.25
2023-02-21T09:15:40.569Z,3.65
2023-02-21T09:17:13.856Z,3.69
2023-02-21T09:18:53.738Z,3.85
2023-02-21T09:20:25.831Z,3.87
2023-02-21T09:21:57.530Z,3.87
2023-02-21T09:23:36.397Z,3.96
2023-02-21T09:25:12.986Z,4.02
2023-02-21T09:26:46.473Z,4.12
2023-02-21T09:28:18.182Z,4.05
2023-02-21T09:29:49.837Z,4.02
2023-02-21T09:31:21.505Z,3.92
2023-02-21T09:32:54.943Z,3.75
2023-02-21T09:34:26.906Z,3.74
2023-02-21T09:35:58.691Z,3.69
2023-02-21T09:37:30.476Z,3.83
2023-02-21T09:39:06.496Z,3.95
2023-02-21T09:40:41.065Z,3.78
2023-02-21T09:42:14.645Z,3.75
2023-02-21T09:43:47.083Z,3.80
2023-02-21T09:45:19.848Z,3.83
2023-02-21T09:46:53.238Z,3.87
2023-02-21T09:48:26.243Z,4.04
2023-02-21T09:50:00.132Z,4.12
2023-02-21T09:51:34.277Z,4.25
2023-02-21T09:53:06.212Z,4.40
2023-02-21T09:54:39.922Z,4.44
2023-02-21T09:56:13.874Z,4.33
2023-02-21T09:57:45.602Z,4.52
2023-02-21T09:59:17.290Z,4.52
2023-02-21T10:00:49.098Z,4.48
2023-02-21T10:02:30.862Z,4.77
2023-02-21T10:04:08.312Z,5.16
2023-02-21T10:05:43.808Z,5.24
2023-02-21T10:07:17.768Z,5.15
2023-02-21T10:08:52.396Z,5.29
2023-02-21T10:10:27.124Z,5.51
2023-02-21T10:12:03.469Z,5.34
2023-02-21T10:13:38.568Z,5.35
2023-02-21T10:15:26.470Z,5.55
2023-02-21T10:17:00.968Z,5.98
2023-02-21T10:18:35.384Z,6.01
2023-02-21T10:20:13.830Z,6.18
2023-02-21T10:21:47.378Z,6.18
2023-02-21T10:23:22.393Z,6.10
2023-02-21T10:24:54.127Z,6.02
2023-02-21T10:26:27.868Z,6.18
2023-02-21T10:27:59.786Z,6.28
2023-02-21T10:29:42.886Z,6.08
2023-02-21T10:31:16.469Z,5.91
2023-02-21T10:32:48.339Z,6.04
2023-02-21T10:34:23.186Z,6.01
2023-02-21T10:35:56.815Z,6.12
2023-02-21T10:37:36.720Z,6.44
2023-02-21T10:39:11.088Z,6.24
2023-02-21T10:40:43.200Z,6.41
2023-02-21T10:42:19.285Z,6.27
2023-02-21T10:43:53.242Z,6.29
2023-02-21T10:45:27.749Z,6.54
2023-02-21T10:47:01.793Z,6.99
2023-02-21T10:48:35.486Z,6.76
2023-02-21T10:50:10.326Z,6.75
2023-02-21T10:51:43.338Z,6.76
2023-02-21T10:53:29.255Z,6.53
2023-02-21T10:55:02.150Z,6.61
2023-02-21T10:56:33.870Z,6.81
2023-02-21T10:58:07.775Z,6.85
2023-02-21T10:59:42.318Z,6.77
2023-02-21T11:01:15.695Z,6.73
2023-02-21T11:02:47.733Z,6.70
2023-02-21T11:04:28.119Z,6.78
2023-02-21T11:06:01.886Z,6.98
2023-02-21T11:07:35.022Z,7.23
2023-02-21T11:09:31.938Z,7.37
2023-02-21T11:11:04.068Z,7.30
2023-02-21T11:12:35.771Z,7.47
2023-02-21T11:14:19.120Z,7.48
2023-02-21T11:15:50.780Z,7.55
2023-02-21T11:17:23.286Z,7.28
2023-02-21T11:19:04.027Z,7.61
2023-02-21T11:20:35.710Z,7.77
2023-02-21T11:22:09.137Z,7.84
2023-02-21T11:23:46.177Z,8.03
2023-02-21T11:25:21.925Z,7.94
2023-02-21T11:26:53.813Z,7.75
2023-02-21T11:28:25.507Z,8.08
2023-02-21T11:29:57.309Z,7.95
2023-02-21T11:31:29.697Z,8.19
2023-02-21T11:33:01.495Z,7.98
2023-02-21T11:34:33.211Z,8.19
2023-02-21T11:36:10.438Z,8.09
2023-02-21T11:37:49.698Z,8.36
2023-02-21T11:39:27.813Z,8.14
2023-02-21T11:41:00.624Z,8.28
2023-02-21T11:42:33.183Z,8.19
2023-02-21T11:44:22.617Z,8.51
2023-02-21T11:46:16.418Z,8.66
2023-02-21T11:47:52.858Z,8.69
2023-02-21T11:49:26.199Z,8.79
2023-02-21T11:50:57.947Z,8.67
2023-02-21T11:52:31.715Z,8.67
2023-02-21T11:54:04.261Z,8.56
2023-02-21T11:55:38.905Z,8.68
2023-02-21T11:57:16.384Z,9.10
2023-02-21T11:58:56.817Z,8.78
2023-02-21T12:00:32.526Z,8.57
2023-02-21T12:02:27.990Z,8.77
2023-02-21T12:04:20.703Z,9.32
2023-02-21T12:05:55.287Z,9.14
2023-02-21T12:07:45.116Z,9.56
2023-02-21T12:09:19.605Z,9.46
2023-02-21T12:10:55.565Z,9.58
2023-02-21T12:12:37.174Z,9.31
2023-02-21T12:14:33.337Z,9.71
2023-02-21T12:16:10.778Z,9.46
2023-02-21T12:17:50.035Z,9.95
2023-02-21T12:19:30.380Z,9.99
2023-02-21T12:21:09.168Z,9.86
2023-02-21T12:22:53.621Z,9.89
2023-02-21T12:24:41.437Z,9.99
2023-02-21T12:26:22.359Z,10.36
2023-02-21T12:27:56.185Z,10.31
2023-02-21T12:29:42.362Z,10.09
2023-02-21T12:31:26.727Z,10.53
2023-02-21T12:33:03.133Z,10.50
2023-02-21T12:34:40.543Z,10.38
2023-02-21T12:36:24.745Z,10.37
2023-02-21T12:37:58.565Z,10.59
2023-02-21T12:39:42.348Z,10.47
2023-02-21T12:41:24.852Z,10.75
2023-02-21T12:43:05.315Z,10.96
2023-02-21T12:44:41.172Z,11.07
2023-02-21T12:46:15.588Z,11.07
2023-02-21T12:47:51.912Z,11.10
2023-02-21T12:49:26.458Z,10.11
2023-02-21T12:51:00.156Z,10.10
2023-02-21T12:52:36.607Z,10.17
2023-02-21T12:54:14.230Z,11.06
2023-02-21T12:55:46.579Z,10.64
2023-02-21T12:57:21.885Z,10.64
2023-02-21T12:58:55.555Z,10.78
2023-02-21T13:00:28.445Z,11.07
2023-02-21T13:02:02.100Z,10.80
2023-02-21T13:03:40.246Z,11.71
2023-02-21T13:05:14.006Z,12.04
2023-02-21T13:06:48.580Z,12.23
2023-02-21T13:08:24.899Z,12.06
2023-02-21T13:10:00.670Z,11.64
2023-02-21T13:11:34.906Z,11.49
2023-02-21T13:13:11.689Z,11.74
2023-02-21T13:14:45.722Z,12.38
2023-02-21T13:16:18.597Z,12.24
2023-02-21T13:17:54.868Z,12.34
2023-02-21T13:19:26.878Z,12.01
2023-02-21T13:21:02.253Z,12.54
2023-02-21T13:23:30.665Z,12.50
2023-02-21T13:25:04.788Z,13.50
2023-02-21T13:26:46.622Z,12.97
2023-02-21T13:28:21.203Z,12.51
2023-02-21T13:30:12.457Z,12.43
2023-02-21T13:31:45.935Z,12.81
2023-02-21T13:33:26.404Z,13.23
2023-02-21T13:34:59.996Z,12.27
2023-02-21T13:36:33.199Z,12.22
2023-02-21T13:38:06.830Z,12.43
2023-02-21T13:39:38.670Z,12.45
2023-02-21T13:41:16.882Z,12.91
2023-02-21T13:42:48.731Z,12.32
2023-02-21T13:44:31.597Z,12.67
2023-02-21T13:46:27.309Z,13.40
2023-02-21T13:48:27.944Z,13.67
2023-02-21T13:49:59.639Z,14.05
2023-02-21T13:51:48.047Z,14.16
2023-02-21T13:53:20.608Z,14.17
2023-02-21T13:55:27.680Z,14.58
2023-02-21T13:56:59.449Z,14.84
2023-02-21T13:58:35.661Z,13.94
2023-02-21T14:00:55.670Z,14.51
2023-02-21T14:02:56.891Z,13.70
2023-02-21T14:05:09.140Z,14.81
2023-02-21T14:06:42.034Z,15.08
2023-02-21T14:08:15.808Z,14.85
2023-02-21T14:09:47.690Z,15.19
2023-02-21T14:11:21.003Z,15.28
2023-02-21T14:12:55.408Z,14.66
2023-02-21T14:14:28.066Z,14.20
2023-02-21T14:16:01.154Z,14.56
2023-02-21T14:17:33.003Z,14.93
2023-02-21T14:19:09.618Z,14.80
2023-02-21T14:20:42.092Z,15.58
2023-02-21T14:22:17.241Z,14.78
2023-02-21T14:23:50.529Z,15.11
2023-02-21T14:25:24.375Z,15.05
2023-02-21T14:26:57.741Z,15.03
2023-02-21T14:29:00.273Z,14.81
2023-02-21T14:30:33.190Z,15.38
2023-02-21T14:32:33.232Z,15.48
2023-02-21T14:34:04.942Z,14.88
2023-02-21T14:35:39.395Z,15.32
2023-02-21T14:37:13.293Z,14.53
2023-02-21T14:38:45.009Z,15.08
2023-02-21T14:40:21.563Z,15.47
2023-02-21T14:42:03.826Z,15.20
2023-02-21T14:43:54.531Z,15.84
2023-02-21T14:45:34.560Z,14.97
2023-02-21T14:47:19.713Z,14.89
2023-02-21T14:49:00.328Z,15.00
2023-02-21T14:50:39.090Z,15.02
2023-02-21T14:52:39.388Z,14.93
2023-02-21T14:54:44.411Z,13.87
2023-02-21T14:56:27.059Z,13.88
2023-02-21T14:58:33.603Z,14.09
2023-02-21T15:00:14.360Z,13.84
2023-02-21T15:01:56.380Z,13.70
2023-02-21T15:03:29.813Z,13.65
2023-02-21T15:05:06.303Z,13.44
2023-02-21T15:06:39.623Z,13.02
2023-02-21T15:08:14.313Z,13.01
2023-02-21T15:09:46.139Z,13.00
2023-02-21T15:11:26.457Z,12.84
2023-02-21T15:12:59.254Z,12.70
2023-02-21T15:14:54.087Z,12.66
2023-02-21T15:16:25.895Z,12.47
2023-02-21T15:18:01.269Z,12.45
2023-02-21T15:19:35.624Z,12.38
2023-02-21T15:21:25.997Z,12.58
2023-02-21T15:23:32.998Z,12.40
2023-02-21T15:25:23.232Z,12.39
2023-02-21T15:27:10.728Z,12.40
2023-02-21T15:28:42.606Z,12.37
2023-02-21T15:30:16.052Z,12.34
2023-02-21T15:31:49.509Z,12.28
2023-02-21T15:33:21.405Z,12.27
2023-02-21T15:34:56.247Z,12.18
2023-02-21T15:36:27.980Z,12.10
2023-02-21T15:38:04.219Z,11.98
2023-02-21T15:39:41.551Z,11.96
2023-02-21T15:41:28.237Z,11.91
2023-02-21T15:43:00.618Z,11.96
2023-02-21T15:44:43.615Z,11.80
2023-02-21T15:46:19.992Z,11.76
2023-02-21T15:47:54.555Z,11.77
2023-02-21T15:49:28.001Z,11.76
2023-02-21T15:51:01.695Z,11.52
2023-02-21T15:52:53.627Z,11.46
2023-02-21T15:54:30.389Z,11.43
2023-02-21T15:56:26.281Z,11.42
2023-02-21T15:58:16.676Z,11.41
2023-02-21T16:00:40.745Z,11.35
2023-02-21T16:02:25.164Z,11.32
2023-02-21T16:04:14.355Z,11.27
2023-02-21T16:05:56.886Z,11.18
2023-02-21T16:07:30.245Z,11.18
2023-02-21T16:09:04.496Z,11.18
2023-02-21T16:10:36.416Z,11.25
2023-02-21T16:12:24.148Z,11.09
2023-02-21T16:13:55.990Z,11.08
2023-02-21T16:15:28.914Z,11.08
2023-02-21T16:17:08.409Z,11.03
2023-02-21T16:18:40.594Z,10.90
2023-02-21T16:20:17.581Z,10.85
2023-02-21T16:21:51.156Z,10.82
2023-02-21T16:23:30.355Z,10.78
2023-02-21T16:25:17.697Z,10.63
2023-02-21T16:27:04.608Z,10.43
2023-02-21T16:28:42.310Z,10.44
2023-02-21T16:30:17.025Z,10.34
2023-02-21T16:31:49.739Z,10.31
2023-02-21T16:33:23.814Z,10.10
2023-02-21T16:34:59.208Z,10.16
2023-02-21T16:36:35.311Z,10.15
2023-02-21T16:38:13.708Z,10.03
2023-02-21T16:40:18.549Z,9.98
2023-02-21T16:41:53.252Z,9.97
2023-02-21T16:43:26.095Z,9.86
2023-02-21T16:44:59.306Z,9.87
2023-02-21T16:46:31.243Z,9.87
2023-02-21T16:48:06.507Z,9.60
2023-02-21T16:49:40.295Z,9.54
2023-02-21T16:51:23.313Z,9.59
2023-02-21T16:52:59.659Z,9.55
2023-02-21T16:54:31.756Z,9.39
2023-02-21T16:56:04.014Z,9.44
2023-02-21T16:57:38.588Z,9.41
2023-02-21T16:59:11.277Z,9.37
2023-02-21T17:00:44.767Z,9.19
2023-02-21T17:02:16.559Z,9.12
2023-02-21T17:03:48.360Z,8.96
2023-02-21T17:05:25.060Z,8.85
2023-02-21T17:06:57.860Z,8.95
2023-02-21T17:08:29.668Z,8.92
2023-02-21T17:10:01.499Z,8.92
2023-02-21T17:11:33.449Z,8.87
2023-02-21T17:13:05.280Z,8.90
2023-02-21T17:14:37.079Z,8.83
2023-02-21T17:16:10.403Z,8.83
2023-02-21T17:17:44.498Z,8.73
2023-02-21T17:19:23.778Z,8.66
2023-02-21T17:20:55.654Z,8.62
2023-02-21T17:22:27.465Z,8.61
2023-02-21T17:23:59.869Z,8.53
2023-02-21T17:25:35.200Z,8.39
2023-02-21T17:27:07.122Z,8.26
2023-02-21T17:28:39.691Z,8.18
2023-02-21T17:30:12.666Z,8.10
2023-02-21T17:31:46.149Z,8.02
2023-02-21T17:33:20.933Z,8.07
2023-02-21T17:34:52.699Z,8.12
2023-02-21T17:36:26.227Z,8.16
2023-02-21T17:38:01.643Z,8.11
2023-02-21T17:39:36.736Z,7.99
2023-02-21T17:41:08.830Z,7.90
2023-02-21T17:42:40.792Z,7.97
2023-02-21T17:44:14.488Z,7.96
2023-02-21T17:45:46.541Z,7.90
2023-02-21T17:47:19.791Z,7.87
2023-02-21T17:48:51.540Z,7.91
2023-02-21T17:50:23.311Z,7.62
2023-02-21T17:51:55.109Z,7.42
2023-02-21T17:53:32.572Z,7.54
2023-02-21T17:55:08.037Z,7.63
2023-02-21T17:56:39.923Z,7.53
2023-02-21T17:58:11.806Z,7.49
2023-02-21T17:59:51.368Z,7.43
2023-02-21T18:01:23.397Z,7.55
2023-02-21T18:02:56.935Z,7.54
2023-02-21T18:04:30.951Z,7.49
2023-02-21T18:06:02.725Z,7.42
2023-02-21T18:07:35.310Z,7.21
2023-02-21T18:09:07.770Z,7.30
2023-02-21T18:10:39.619Z,7.25
2023-02-21T18:12:11.428Z,7.29
2023-02-21T18:13:43.208Z,7.20
2023-02-21T18:15:15.447Z,7.25
2023-02-21T18:16:47.404Z,7.26
2023-02-21T18:18:20.790Z,7.25
2023-02-21T18:19:52.601Z,7.24
2023-02-21T18:21:25.092Z,7.07
2023-02-21T18:23:20.271Z,7.08
2023-02-21T18:24:54.472Z,6.97
2023-02-21T18:26:26.285Z,7.02
2023-02-21T18:27:58.115Z,7.03
2023-02-21T18:29:31.485Z,6.96
2023-02-21T18:31:03.357Z,6.88
2023-02-21T18:32:35.226Z,6.78
2023-02-21T18:34:08.528Z,6.70
2023-02-21T18:35:40.685Z,6.69
2023-02-21T18:37:12.508Z,6.74
2023-02-21T18:38:47.897Z,6.73
2023-02-21T18:40:19.999Z,6.74
2023-02-21T18:42:01.622Z,6.64
2023-02-21T18:45:33.003Z,6.64
2023-02-21T18:47:05.025Z,6.63
2023-02-21T18:48:36.962Z,6.59
2023-02-21T18:50:10.646Z,6.67
2023-02-21T18:51:44.534Z,6.62
2023-02-21T18:53:16.666Z,6.52
2023-02-21T18:54:49.664Z,6.48
2023-02-21T18:56:21.534Z,6.48
2023-02-21T18:57:59.547Z,6.44
2023-02-21T18:59:32.489Z,6.26
2023-02-21T19:01:12.920Z,6.24
2023-02-21T19:02:46.577Z,6.29
2023-02-21T19:04:18.487Z,6.26
2023-02-21T19:05:53.487Z,6.30
2023-02-21T19:07:25.379Z,6.25
2023-02-21T19:09:04.966Z,6.17
2023-02-21T19:10:36.738Z,6.30
2023-02-21T19:12:08.752Z,6.26
2023-02-21T19:13:40.692Z,6.26
2023-02-21T19:15:14.694Z,6.25
2023-02-21T19:16:52.791Z,6.14
2023-02-21T19:18:30.062Z,6.13
2023-02-21T19:20:03.372Z,6.17
2023-02-21T19:21:43.622Z,5.99
2023-02-21T19:23:21.412Z,5.94
2023-02-21T19:24:53.251Z,5.76
2023-02-21T19:26:29.231Z,5.84
2023-02-21T19:28:01.476Z,5.80
2023-02-21T19:29:37.643Z,5.72
2023-02-21T19:31:10.830Z,5.63
2023-02-21T19:32:42.860Z,5.65
2023-02-21T19:34:16.762Z,5.64
2023-02-21T19:35:51.097Z,5.66
2023-02-21T19:37:31.666Z,5.63
2023-02-21T19:39:03.997Z,5.65
2023-02-21T19:40:37.903Z,5.69
2023-02-21T19:42:12.648Z,5.70
2023-02-21T19:43:44.680Z,5.67
2023-02-21T19:45:26.815Z,5.62
2023-02-21T19:47:52.910Z,5.52
2023-02-21T19:49:02.737Z,5.43
2023-02-21T19:50:38.820Z,5.40
2023-02-21T19:54:15.683Z,5.47
2023-02-21T19:55:57.880Z,5.48
2023-02-21T19:57:29.830Z,5.43
2023-02-21T19:59:37.290Z,5.41
2023-02-21T20:01:09.283Z,5.31
2023-02-21T20:02:41.311Z,5.20
2023-02-21T20:04:13.280Z,5.08
2023-02-21T20:05:45.344Z,5.17
2023-02-21T20:07:19.695Z,5.00
2023-02-21T20:08:54.090Z,5.05
2023-02-21T20:10:27.244Z,4.83
2023-02-21T20:12:03.137Z,5.04
2023-02-21T20:13:35.825Z,5.04
2023-02-21T20:15:14.824Z,5.14
2023-02-21T20:16:49.300Z,4.88
2023-02-21T20:18:21.281Z,4.98
2023-02-21T20:19:59.223Z,4.87
2023-02-21T20:21:31.315Z,4.92
2023-02-21T20:23:04.443Z,5.10
2023-02-21T20:24:36.259Z,5.09
2023-02-21T20:26:13.821Z,5.02
2023-02-21T20:27:48.610Z,4.92
2023-02-21T20:29:26.871Z,4.83
2023-02-21T20:30:59.007Z,4.85
2023-02-21T20:32:32.640Z,4.85
2023-02-21T20:34:05.774Z,4.81
2023-02-21T20:35:38.221Z,4.72
2023-02-21T20:37:19.232Z,4.75
2023-02-21T20:38:51.106Z,4.75
2023-02-21T20:40:23.118Z,4.75
2023-02-21T20:41:58.274Z,4.71
2023-02-21T20:43:30.196Z,4.49
2023-02-21T20:45:02.688Z,4.51
2023-02-21T20:46:35.068Z,4.63
2023-02-21T20:48:08.168Z,4.60
2023-02-21T20:49:42.806Z,4.58
2023-02-21T20:51:15.072Z,4.59
2023-02-21T20:52:47.206Z,4.61
2023-02-21T20:54:22.146Z,4.61
2023-02-21T20:55:56.947Z,4.59
2023-02-21T20:57:37.666Z,4.55
2023-02-21T20:59:15.996Z,4.18
2023-02-21T21:00:49.773Z,4.28
2023-02-21T21:02:24.596Z,4.43
2023-02-21T21:03:57.202Z,4.51
2023-02-21T21:05:29.190Z,4.46
2023-02-21T21:07:02.186Z,4.06
2023-02-21T21:08:33.971Z,4.02
2023-02-21T21:10:10.650Z,4.25
2023-02-21T21:11:46.112Z,4.33
2023-02-21T21:13:22.142Z,4.36
2023-02-21T21:14:53.947Z,4.35
2023-02-21T21:16:28.693Z,4.26
2023-02-21T21:18:00.535Z,4.33
2023-02-21T21:19:35.017Z,4.30
2023-02-21T21:21:06.789Z,4.26
2023-02-21T21:22:41.604Z,4.32
2023-02-21T21:24:13.643Z,4.32
2023-02-21T21:25:45.735Z,4.41